Osterville, MA (02655)

7:14 AM EST on February 11, 2016 (GMT -0500)
Osterville - Wianno | | Change Station
CLOSE
Current Station
Personal Weather Station
Location: Barnstable, MA
Elevation: 49 ft
Nearby Weather Stations
Active Advisory: Special Statement

Elev 49 ft 41.62 °N, 70.38 °W | Updated 1 minute ago

Partly Cloudy
Partly Cloudy
23.4 °F
Feels Like 19 °F
N
3.7
Wind Variable Wind from WNW

Today
High -- | Low -- °F
--% Chance of Precip.
Yesterday
High -- | Low -- °F
Precip. -- in
Pressure 29.68 in
Visibility 10.0 miles
Clouds Clear
Windchill 19 °F
Dew Point 18 °F
Humidity 81%
Rainfall 0.00 in
Snow Depth Not available.
6:42 AM 5:09 PM
Waxing Crescent, 11% visible
METAR KHYA 111156Z 28005KT 10SM CLR M04/M09 A2967 RMK AO2 SLP049 T10391089 11006 21044 51012
Pressure 29.68 in
Visibility 10.0 miles
Clouds Clear
Windchill 19 °F
Dew Point 18 °F
Humidity 81%
Rainfall 0.00 in
Snow Depth Not available.
6:42 AM 5:09 PM
Waxing Crescent, 11% visible
METAR KHYA 111156Z 28005KT 10SM CLR M04/M09 A2967 RMK AO2 SLP049 T10391089 11006 21044 51012

10-Day Weather Forecast

Almanac

Astronomy

Feb. 11, 2016 Rise Set
Actual Time
Civil Twilight
Nautical Twilight
Astronomical Twilight
Moon
Length of Visible Light
Length of Day
Tomorrow will be .
, % of the Moon is Illuminated

Today's Extremes

State Highs State Lows

Community

WunderPhotos

Upload Photos

1,892,035 photos uploaded!

WunderBlog® & News

Nearby

Air Quality

  Air Quality AQ Index Pollutant
Not available.

Snow Depth

Station Depth Elevation

Earthquake Activity

City Distance Mag. Time & Date
Minimum magnitude displayed is 2.5.

Coastal Water Temperatures

Place Temperature

Stations

Nearby Weather Stations

Station Location Temp. Windchill Dew Point Humidity Wind Precip. Elev Updated Type
                   

Watches & Warnings

Special Statement
Issued: 3:06 AM EST Feb. 11, 2016 – National Weather Service

... Scattered snow showers and a few localized heavier snow squalls
expected today...

Scattered snow showers will develop through mid morning across
southern New England and continue into the afternoon. The activity
will be hit and miss with most locations receiving just a coating
to less than 1 inch of new snow. However... a few localized
heavier snow squalls are possible later this morning and
afternoon. Any localized snow squalls may put down a quick inch of
snow... resulting in roads quickly becoming snow covered along with
briefly poor visibility and gusty winds.

Motorists traveling today should be alert for rapidly changing
visibility and Road conditions in any heavier snow showers/squalls
that develop. The activity will come to an end this evening.


Frank